sensor_id;sensor_type;location;lat;lon;timestamp;pressure;altitude;pressure_sealevel;temperature;humidity
33697;BME280;20031;43.416;23.232;2024-03-23T00:54:38;100077.19;;;6.17;65.51
33697;BME280;20031;43.416;23.232;2024-03-23T00:57:04;100077.19;;;6.17;65.64
33697;BME280;20031;43.416;23.232;2024-03-23T00:59:29;100079.66;;;6.19;65.26
33697;BME280;20031;43.416;23.232;2024-03-23T01:01:57;100076.50;;;6.15;65.40
33697;BME280;20031;43.416;23.232;2024-03-23T01:04:22;100075.81;;;6.13;65.25
33697;BME280;20031;43.416;23.232;2024-03-23T01:06:48;100072.53;;;6.11;65.02
33697;BME280;20031;43.416;23.232;2024-03-23T01:09:13;100070.91;;;6.10;65.30
33697;BME280;20031;43.416;23.232;2024-03-23T01:11:39;100069.41;;;6.08;65.25
33697;BME280;20031;43.416;23.232;2024-03-23T01:14:05;100061.22;;;6.03;65.05
33697;BME280;20031;43.416;23.232;2024-03-23T01:16:31;100068.28;;;6.01;64.99
33697;BME280;20031;43.416;23.232;2024-03-23T01:18:57;100073.06;;;6.06;64.79
33697;BME280;20031;43.416;23.232;2024-03-23T01:21:22;100063.78;;;6.03;64.73
33697;BME280;20031;43.416;23.232;2024-03-23T01:23:47;100069.22;;;6.00;64.37
33697;BME280;20031;43.416;23.232;2024-03-23T01:26:13;100072.41;;;5.83;64.43
33697;BME280;20031;43.416;23.232;2024-03-23T01:28:38;100064.53;;;5.64;64.44
33697;BME280;20031;43.416;23.232;2024-03-23T01:31:05;100065.59;;;5.42;65.17
33697;BME280;20031;43.416;23.232;2024-03-23T01:33:30;100067.09;;;5.24;65.66
33697;BME280;20031;43.416;23.232;2024-03-23T01:35:55;100068.09;;;5.12;66.33
33697;BME280;20031;43.416;23.232;2024-03-23T01:38:21;100075.06;;;5.01;67.04
33697;BME280;20031;43.416;23.232;2024-03-23T01:40:46;100070.53;;;4.93;67.71
33697;BME280;20031;43.416;23.232;2024-03-23T01:43:12;100073.13;;;4.93;68.28
33697;BME280;20031;43.416;23.232;2024-03-23T01:45:38;100060.09;;;4.95;68.71
33697;BME280;20031;43.416;23.232;2024-03-23T01:48:04;100069.09;;;5.00;68.45
33697;BME280;20031;43.416;23.232;2024-03-23T01:50:30;100059.03;;;4.97;68.67
33697;BME280;20031;43.416;23.232;2024-03-23T01:52:58;100061.84;;;4.94;68.59
33697;BME280;20031;43.416;23.232;2024-03-23T01:55:24;100063.03;;;4.90;68.90
33697;BME280;20031;43.416;23.232;2024-03-23T01:57:50;100062.47;;;4.87;69.22
33697;BME280;20031;43.416;23.232;2024-03-23T02:00:15;100070.31;;;4.85;69.07
33697;BME280;20031;43.416;23.232;2024-03-23T02:02:44;100059.19;;;4.85;69.40
33697;BME280;20031;43.416;23.232;2024-03-23T02:05:13;100063.75;;;4.81;69.23
33697;BME280;20031;43.416;23.232;2024-03-23T02:07:40;100055.59;;;4.76;69.47
33697;BME280;20031;43.416;23.232;2024-03-23T02:10:06;100060.41;;;4.70;69.43
33697;BME280;20031;43.416;23.232;2024-03-23T02:12:32;100064.16;;;4.66;69.47
33697;BME280;20031;43.416;23.232;2024-03-23T02:14:57;100070.41;;;4.63;69.83
33697;BME280;20031;43.416;23.232;2024-03-23T02:17:23;100061.94;;;4.61;70.07
33697;BME280;20031;43.416;23.232;2024-03-23T02:19:48;100068.19;;;4.59;69.85
33697;BME280;20031;43.416;23.232;2024-03-23T02:22:14;100064.09;;;4.56;69.74
33697;BME280;20031;43.416;23.232;2024-03-23T02:24:41;100067.72;;;4.54;70.01
33697;BME280;20031;43.416;23.232;2024-03-23T02:27:06;100064.56;;;4.51;69.86
33697;BME280;20031;43.416;23.232;2024-03-23T02:29:32;100065.88;;;4.45;70.33
33697;BME280;20031;43.416;23.232;2024-03-23T02:31:57;100067.84;;;4.42;70.10
33697;BME280;20031;43.416;23.232;2024-03-23T02:34:24;100065.75;;;4.36;70.47
33697;BME280;20031;43.416;23.232;2024-03-23T02:36:49;100061.75;;;4.32;70.59
33697;BME280;20031;43.416;23.232;2024-03-23T02:39:15;100066.91;;;4.32;70.68
33697;BME280;20031;43.416;23.232;2024-03-23T02:41:40;100060.03;;;4.32;70.52
33697;BME280;20031;43.416;23.232;2024-03-23T02:44:06;100059.66;;;4.37;71.06
33697;BME280;20031;43.416;23.232;2024-03-23T02:46:31;100053.34;;;4.41;71.04
33697;BME280;20031;43.416;23.232;2024-03-23T02:48:57;100059.31;;;4.41;70.76
33697;BME280;20031;43.416;23.232;2024-03-23T02:51:22;100056.47;;;4.44;70.67
33697;BME280;20031;43.416;23.232;2024-03-23T02:53:48;100058.38;;;4.42;70.53
33697;BME280;20031;43.416;23.232;2024-03-23T02:56:13;100061.44;;;4.36;70.74
33697;BME280;20031;43.416;23.232;2024-03-23T02:58:42;100055.19;;;4.39;70.47
33697;BME280;20031;43.416;23.232;2024-03-23T03:01:08;100057.09;;;4.37;70.49
33697;BME280;20031;43.416;23.232;2024-03-23T03:03:33;100054.03;;;4.32;70.53
33697;BME280;20031;43.416;23.232;2024-03-23T03:05:59;100047.50;;;4.28;70.30
33697;BME280;20031;43.416;23.232;2024-03-23T03:08:24;100048.19;;;4.30;70.60
33697;BME280;20031;43.416;23.232;2024-03-23T03:10:49;100050.19;;;4.26;70.59
33697;BME280;20031;43.416;23.232;2024-03-23T03:13:15;100049.47;;;4.24;70.62
33697;BME280;20031;43.416;23.232;2024-03-23T03:15:43;100044.00;;;4.18;70.86
33697;BME280;20031;43.416;23.232;2024-03-23T03:18:09;100048.44;;;4.16;70.68
33697;BME280;20031;43.416;23.232;2024-03-23T03:20:38;100052.41;;;4.09;70.92
33697;BME280;20031;43.416;23.232;2024-03-23T03:23:05;100051.63;;;4.08;70.97
33697;BME280;20031;43.416;23.232;2024-03-23T03:25:30;100050.31;;;4.14;71.28
33697;BME280;20031;43.416;23.232;2024-03-23T03:27:56;100041.63;;;4.15;71.32
33697;BME280;20031;43.416;23.232;2024-03-23T03:30:21;100038.13;;;4.16;71.00
33697;BME280;20031;43.416;23.232;2024-03-23T03:32:47;100043.03;;;4.19;71.38
33697;BME280;20031;43.416;23.232;2024-03-23T03:35:12;100038.72;;;4.19;71.08
33697;BME280;20031;43.416;23.232;2024-03-23T03:37:37;100035.31;;;4.19;71.07
33697;BME280;20031;43.416;23.232;2024-03-23T03:40:03;100039.91;;;4.26;71.26
33697;BME280;20031;43.416;23.232;2024-03-23T03:42:29;100036.34;;;4.27;70.97
33697;BME280;20031;43.416;23.232;2024-03-23T03:44:54;100042.56;;;4.25;70.52
33697;BME280;20031;43.416;23.232;2024-03-23T03:47:19;100042.13;;;4.20;70.43
33697;BME280;20031;43.416;23.232;2024-03-23T03:49:45;100035.91;;;4.22;71.00
33697;BME280;20031;43.416;23.232;2024-03-23T03:52:10;100038.59;;;4.21;70.57
33697;BME280;20031;43.416;23.232;2024-03-23T03:54:36;100033.44;;;4.21;70.51
33697;BME280;20031;43.416;23.232;2024-03-23T03:57:01;100029.00;;;4.23;70.97
33697;BME280;20031;43.416;23.232;2024-03-23T03:59:27;100029.91;;;4.22;70.59
33697;BME280;20031;43.416;23.232;2024-03-23T04:01:52;100029.47;;;4.17;70.95
33697;BME280;20031;43.416;23.232;2024-03-23T04:04:18;100039.19;;;4.13;70.78
33697;BME280;20031;43.416;23.232;2024-03-23T04:06:43;100035.34;;;4.08;70.99
33697;BME280;20031;43.416;23.232;2024-03-23T04:09:09;100039.91;;;4.04;71.03
33697;BME280;20031;43.416;23.232;2024-03-23T04:11:35;100033.22;;;4.02;70.56
33697;BME280;20031;43.416;23.232;2024-03-23T04:14:01;100039.09;;;4.04;70.98
33697;BME280;20031;43.416;23.232;2024-03-23T04:16:29;100042.03;;;4.00;70.25
33697;BME280;20031;43.416;23.232;2024-03-23T04:18:55;100044.00;;;3.96;70.39
33697;BME280;20031;43.416;23.232;2024-03-23T04:21:22;100040.84;;;3.93;70.21
33697;BME280;20031;43.416;23.232;2024-03-23T04:23:48;100037.44;;;3.92;70.77
33697;BME280;20031;43.416;23.232;2024-03-23T04:26:13;100037.56;;;3.91;70.73
33697;BME280;20031;43.416;23.232;2024-03-23T04:28:39;100035.09;;;3.89;70.98
33697;BME280;20031;43.416;23.232;2024-03-23T04:31:04;100038.63;;;3.88;70.87
33697;BME280;20031;43.416;23.232;2024-03-23T04:33:30;100041.41;;;3.85;71.02
33697;BME280;20031;43.416;23.232;2024-03-23T04:35:56;100035.56;;;3.83;71.23
33697;BME280;20031;43.416;23.232;2024-03-23T04:38:22;100041.22;;;3.88;71.37
33697;BME280;20031;43.416;23.232;2024-03-23T04:40:57;100043.31;;;3.94;71.25
33697;BME280;20031;43.416;23.232;2024-03-23T04:43:23;100038.84;;;3.96;70.72
33697;BME280;20031;43.416;23.232;2024-03-23T04:45:49;100042.34;;;3.95;70.86
33697;BME280;20031;43.416;23.232;2024-03-23T04:48:14;100040.63;;;3.96;70.68
33697;BME280;20031;43.416;23.232;2024-03-23T04:50:40;100044.72;;;3.98;71.00
33697;BME280;20031;43.416;23.232;2024-03-23T04:53:06;100046.81;;;4.04;71.08
33697;BME280;20031;43.416;23.232;2024-03-23T04:55:32;100038.50;;;4.11;70.74
33697;BME280;20031;43.416;23.232;2024-03-23T04:57:57;100036.72;;;4.23;70.54
33697;BME280;20031;43.416;23.232;2024-03-23T05:00:23;100046.19;;;4.33;70.71
33697;BME280;20031;43.416;23.232;2024-03-23T05:02:48;100046.03;;;4.46;70.64
33697;BME280;20031;43.416;23.232;2024-03-23T05:05:14;100039.69;;;4.60;70.71
33697;BME280;20031;43.416;23.232;2024-03-23T05:07:39;100043.88;;;4.72;70.05
33697;BME280;20031;43.416;23.232;2024-03-23T05:10:07;100035.13;;;4.84;69.89
33697;BME280;20031;43.416;23.232;2024-03-23T05:12:35;100037.00;;;4.93;69.49
33697;BME280;20031;43.416;23.232;2024-03-23T05:15:01;100041.03;;;5.06;69.22
33697;BME280;20031;43.416;23.232;2024-03-23T05:17:26;100035.44;;;5.22;69.16
33697;BME280;20031;43.416;23.232;2024-03-23T05:19:52;100030.78;;;5.36;68.91
33697;BME280;20031;43.416;23.232;2024-03-23T05:22:17;100030.47;;;5.50;68.33
33697;BME280;20031;43.416;23.232;2024-03-23T05:24:45;100028.81;;;5.69;68.25
33697;BME280;20031;43.416;23.232;2024-03-23T05:27:10;100030.31;;;5.92;67.55
33697;BME280;20031;43.416;23.232;2024-03-23T05:29:36;100021.50;;;6.04;66.59
33697;BME280;20031;43.416;23.232;2024-03-23T05:32:01;100030.50;;;6.09;65.81
33697;BME280;20031;43.416;23.232;2024-03-23T05:34:26;100033.13;;;6.19;66.09
33697;BME280;20031;43.416;23.232;2024-03-23T05:36:53;100027.16;;;6.28;65.99
33697;BME280;20031;43.416;23.232;2024-03-23T05:39:19;100027.88;;;6.49;65.99
33697;BME280;20031;43.416;23.232;2024-03-23T05:41:47;100019.75;;;6.72;65.10
33697;BME280;20031;43.416;23.232;2024-03-23T05:44:13;100020.28;;;6.85;63.95
33697;BME280;20031;43.416;23.232;2024-03-23T05:46:39;100016.88;;;6.94;62.62
33697;BME280;20031;43.416;23.232;2024-03-23T05:49:04;100004.22;;;7.00;61.94
33697;BME280;20031;43.416;23.232;2024-03-23T05:51:30;100012.91;;;7.18;62.21
33697;BME280;20031;43.416;23.232;2024-03-23T05:53:55;100013.31;;;7.23;61.79
33697;BME280;20031;43.416;23.232;2024-03-23T05:56:20;100011.13;;;7.28;61.41
33697;BME280;20031;43.416;23.232;2024-03-23T05:58:46;100010.16;;;7.38;62.43
33697;BME280;20031;43.416;23.232;2024-03-23T06:01:12;100000.41;;;7.59;62.14
33697;BME280;20031;43.416;23.232;2024-03-23T06:03:38;100008.00;;;7.79;61.43
33697;BME280;20031;43.416;23.232;2024-03-23T06:06:03;100001.03;;;7.80;60.35
33697;BME280;20031;43.416;23.232;2024-03-23T06:08:29;100004.06;;;8.02;60.51
33697;BME280;20031;43.416;23.232;2024-03-23T06:10:55;100004.53;;;8.24;60.14
33697;BME280;20031;43.416;23.232;2024-03-23T06:13:21;100001.28;;;8.40;59.51
33697;BME280;20031;43.416;23.232;2024-03-23T06:15:50;100003.38;;;8.54;58.48
33697;BME280;20031;43.416;23.232;2024-03-23T06:18:15;100005.97;;;8.54;58.05
33697;BME280;20031;43.416;23.232;2024-03-23T06:20:41;99995.34;;;8.74;58.19
33697;BME280;20031;43.416;23.232;2024-03-23T06:23:06;99993.69;;;8.90;57.21
33697;BME280;20031;43.416;23.232;2024-03-23T06:25:31;99985.06;;;9.07;56.46
33697;BME280;20031;43.416;23.232;2024-03-23T06:27:57;99985.47;;;9.20;55.45
33697;BME280;20031;43.416;23.232;2024-03-23T06:30:27;99985.84;;;9.25;54.64
33697;BME280;20031;43.416;23.232;2024-03-23T06:32:54;99981.22;;;9.36;54.23
33697;BME280;20031;43.416;23.232;2024-03-23T06:35:20;99990.22;;;9.50;54.05
33697;BME280;20031;43.416;23.232;2024-03-23T06:37:45;99992.44;;;9.62;53.32
33697;BME280;20031;43.416;23.232;2024-03-23T06:40:11;99992.81;;;9.75;52.77
33697;BME280;20031;43.416;23.232;2024-03-23T06:42:36;99992.59;;;9.94;53.45
33697;BME280;20031;43.416;23.232;2024-03-23T06:45:02;99989.81;;;10.20;52.44
33697;BME280;20031;43.416;23.232;2024-03-23T06:47:30;99989.63;;;10.22;51.97
33697;BME280;20031;43.416;23.232;2024-03-23T06:49:55;99987.94;;;10.54;52.57
33697;BME280;20031;43.416;23.232;2024-03-23T06:52:21;99984.75;;;10.84;51.98
33697;BME280;20031;43.416;23.232;2024-03-23T06:54:46;99990.09;;;10.90;50.31
33697;BME280;20031;43.416;23.232;2024-03-23T06:57:12;99990.75;;;10.84;49.78
33697;BME280;20031;43.416;23.232;2024-03-23T06:59:37;99983.75;;;11.09;50.69
33697;BME280;20031;43.416;23.232;2024-03-23T07:02:05;99980.47;;;11.46;50.48
33697;BME280;20031;43.416;23.232;2024-03-23T07:04:33;99978.94;;;11.75;49.64
33697;BME280;20031;43.416;23.232;2024-03-23T07:06:59;99977.44;;;11.97;48.48
33697;BME280;20031;43.416;23.232;2024-03-23T07:09:24;99974.69;;;12.21;47.95
33697;BME280;20031;43.416;23.232;2024-03-23T07:11:53;99977.88;;;12.38;47.50
33697;BME280;20031;43.416;23.232;2024-03-23T07:14:19;99973.28;;;12.71;47.58
33697;BME280;20031;43.416;23.232;2024-03-23T07:16:45;99972.09;;;12.73;46.45
33697;BME280;20031;43.416;23.232;2024-03-23T07:19:10;99971.50;;;12.93;46.30
33697;BME280;20031;43.416;23.232;2024-03-23T07:21:36;99966.97;;;13.24;45.87
33697;BME280;20031;43.416;23.232;2024-03-23T07:24:01;99961.94;;;13.37;44.80
33697;BME280;20031;43.416;23.232;2024-03-23T07:26:26;99957.91;;;13.63;44.18
33697;BME280;20031;43.416;23.232;2024-03-23T07:28:52;99955.94;;;13.79;44.07
33697;BME280;20031;43.416;23.232;2024-03-23T07:31:18;99950.97;;;14.13;43.43
33697;BME280;20031;43.416;23.232;2024-03-23T07:33:45;99957.44;;;14.31;42.71
33697;BME280;20031;43.416;23.232;2024-03-23T07:36:11;99948.81;;;14.52;42.22
33697;BME280;20031;43.416;23.232;2024-03-23T07:38:37;99948.03;;;14.78;41.84
33697;BME280;20031;43.416;23.232;2024-03-23T07:43:28;99931.75;;;15.25;39.53
33697;BME280;20031;43.416;23.232;2024-03-23T07:45:54;99930.53;;;15.54;38.27
33697;BME280;20031;43.416;23.232;2024-03-23T07:48:21;99925.34;;;15.67;36.48
33697;BME280;20031;43.416;23.232;2024-03-23T07:50:57;99926.47;;;15.85;34.96
33697;BME280;20031;43.416;23.232;2024-03-23T07:53:22;99931.81;;;16.11;34.40
33697;BME280;20031;43.416;23.232;2024-03-23T07:55:59;99923.00;;;16.25;34.15
33697;BME280;20031;43.416;23.232;2024-03-23T07:58:25;99923.47;;;16.48;34.54
33697;BME280;20031;43.416;23.232;2024-03-23T08:00:52;99918.84;;;16.63;33.43
33697;BME280;20031;43.416;23.232;2024-03-23T08:03:18;99919.25;;;16.73;33.30
33697;BME280;20031;43.416;23.232;2024-03-23T08:05:43;99910.38;;;16.74;33.07
33697;BME280;20031;43.416;23.232;2024-03-23T08:08:09;99908.34;;;16.95;33.50
33697;BME280;20031;43.416;23.232;2024-03-23T08:10:34;99912.41;;;17.17;33.46
33697;BME280;20031;43.416;23.232;2024-03-23T08:13:00;99907.75;;;17.38;32.80
33697;BME280;20031;43.416;23.232;2024-03-23T08:15:25;99906.31;;;17.48;32.69
33697;BME280;20031;43.416;23.232;2024-03-23T08:17:51;99898.00;;;17.58;32.70
33697;BME280;20031;43.416;23.232;2024-03-23T08:20:16;99897.28;;;17.82;32.73
33697;BME280;20031;43.416;23.232;2024-03-23T08:22:42;99899.66;;;18.02;32.80
33697;BME280;20031;43.416;23.232;2024-03-23T08:25:07;99899.81;;;18.20;32.43
33697;BME280;20031;43.416;23.232;2024-03-23T08:27:33;99897.91;;;18.34;31.82
33697;BME280;20031;43.416;23.232;2024-03-23T08:29:58;99897.03;;;18.46;31.71
33697;BME280;20031;43.416;23.232;2024-03-23T08:32:24;99893.75;;;18.50;30.96
33697;BME280;20031;43.416;23.232;2024-03-23T08:34:49;99887.75;;;18.68;31.31
33697;BME280;20031;43.416;23.232;2024-03-23T08:37:14;99886.59;;;18.88;30.70
33697;BME280;20031;43.416;23.232;2024-03-23T08:39:43;99876.53;;;19.03;30.64
33697;BME280;20031;43.416;23.232;2024-03-23T08:42:08;99872.53;;;19.18;29.68
33697;BME280;20031;43.416;23.232;2024-03-23T08:44:34;99872.44;;;19.25;29.26
33697;BME280;20031;43.416;23.232;2024-03-23T08:46:59;99871.22;;;19.27;29.19
33697;BME280;20031;43.416;23.232;2024-03-23T08:49:24;99861.88;;;19.49;28.91
33697;BME280;20031;43.416;23.232;2024-03-23T08:51:50;99863.09;;;19.46;27.99
33697;BME280;20031;43.416;23.232;2024-03-23T08:54:15;99869.56;;;19.68;28.49
33697;BME280;20031;43.416;23.232;2024-03-23T08:56:41;99864.50;;;19.85;28.05
33697;BME280;20031;43.416;23.232;2024-03-23T08:59:06;99854.78;;;19.97;27.87
33697;BME280;20031;43.416;23.232;2024-03-23T09:01:31;99857.16;;;20.04;27.21
33697;BME280;20031;43.416;23.232;2024-03-23T09:03:57;99851.69;;;20.17;27.90
33697;BME280;20031;43.416;23.232;2024-03-23T09:06:22;99857.91;;;20.23;27.69
33697;BME280;20031;43.416;23.232;2024-03-23T09:08:48;99849.22;;;20.45;27.50
33697;BME280;20031;43.416;23.232;2024-03-23T09:11:13;99841.06;;;20.58;27.75
33697;BME280;20031;43.416;23.232;2024-03-23T09:13:39;99835.69;;;20.64;28.08
33697;BME280;20031;43.416;23.232;2024-03-23T09:16:06;99831.78;;;20.67;28.10
33697;BME280;20031;43.416;23.232;2024-03-23T09:18:35;99826.88;;;20.70;27.49
33697;BME280;20031;43.416;23.232;2024-03-23T09:21:02;99818.25;;;20.86;27.66
33697;BME280;20031;43.416;23.232;2024-03-23T09:23:28;99820.09;;;20.97;27.12
33697;BME280;20031;43.416;23.232;2024-03-23T09:25:53;99811.44;;;21.01;27.13
33697;BME280;20031;43.416;23.232;2024-03-23T09:28:19;99802.47;;;21.14;26.80
33697;BME280;20031;43.416;23.232;2024-03-23T09:30:44;99806.25;;;21.29;26.86
33697;BME280;20031;43.416;23.232;2024-03-23T09:33:10;99801.88;;;21.35;26.70
33697;BME280;20031;43.416;23.232;2024-03-23T09:35:40;99790.34;;;21.41;26.18
33697;BME280;20031;43.416;23.232;2024-03-23T09:38:05;99790.44;;;21.34;25.85
33697;BME280;20031;43.416;23.232;2024-03-23T09:40:33;99789.06;;;21.43;26.07
33697;BME280;20031;43.416;23.232;2024-03-23T09:42:58;99787.69;;;21.52;26.42
33697;BME280;20031;43.416;23.232;2024-03-23T09:45:28;99775.00;;;21.54;26.21
33697;BME280;20031;43.416;23.232;2024-03-23T09:47:57;99771.69;;;21.75;26.19
33697;BME280;20031;43.416;23.232;2024-03-23T09:50:23;99771.00;;;21.79;25.44
33697;BME280;20031;43.416;23.232;2024-03-23T09:52:48;99761.09;;;22.03;25.52
33697;BME280;20031;43.416;23.232;2024-03-23T09:55:14;99756.53;;;22.14;24.87
33697;BME280;20031;43.416;23.232;2024-03-23T09:57:41;99759.97;;;22.15;24.29
33697;BME280;20031;43.416;23.232;2024-03-23T10:00:07;99751.41;;;22.24;24.31
33697;BME280;20031;43.416;23.232;2024-03-23T10:02:34;99748.16;;;22.06;23.86
33697;BME280;20031;43.416;23.232;2024-03-23T10:05:00;99739.34;;;21.89;23.75
33697;BME280;20031;43.416;23.232;2024-03-23T10:07:26;99738.50;;;22.00;22.99
33697;BME280;20031;43.416;23.232;2024-03-23T10:09:54;99739.75;;;21.98;23.42
33697;BME280;20031;43.416;23.232;2024-03-23T10:12:20;99735.25;;;21.98;22.59
33697;BME280;20031;43.416;23.232;2024-03-23T10:14:46;99730.78;;;21.99;22.57
33697;BME280;20031;43.416;23.232;2024-03-23T10:17:15;99725.47;;;21.99;23.05
33697;BME280;20031;43.416;23.232;2024-03-23T10:19:49;99718.53;;;21.98;22.96
33697;BME280;20031;43.416;23.232;2024-03-23T10:22:24;99717.50;;;21.99;22.71
33697;BME280;20031;43.416;23.232;2024-03-23T10:24:50;99713.50;;;22.12;22.54
33697;BME280;20031;43.416;23.232;2024-03-23T10:27:19;99707.34;;;22.40;22.80
33697;BME280;20031;43.416;23.232;2024-03-23T10:29:46;99702.25;;;22.71;23.01
33697;BME280;20031;43.416;23.232;2024-03-23T10:32:13;99705.56;;;22.83;22.19
33697;BME280;20031;43.416;23.232;2024-03-23T10:34:39;99696.94;;;22.71;22.45
33697;BME280;20031;43.416;23.232;2024-03-23T10:37:05;99693.28;;;22.77;22.85
33697;BME280;20031;43.416;23.232;2024-03-23T10:39:32;99688.50;;;22.79;23.05
33697;BME280;20031;43.416;23.232;2024-03-23T10:42:01;99682.97;;;22.80;22.68
33697;BME280;20031;43.416;23.232;2024-03-23T10:44:28;99680.63;;;22.84;22.52
33697;BME280;20031;43.416;23.232;2024-03-23T10:46:59;99664.91;;;22.99;22.92
33697;BME280;20031;43.416;23.232;2024-03-23T10:49:32;99663.63;;;23.01;23.23
33697;BME280;20031;43.416;23.232;2024-03-23T10:52:02;99665.47;;;23.01;23.74
33697;BME280;20031;43.416;23.232;2024-03-23T10:54:30;99654.94;;;22.89;23.84
33697;BME280;20031;43.416;23.232;2024-03-23T10:57:06;99661.25;;;22.83;23.17
33697;BME280;20031;43.416;23.232;2024-03-23T10:59:34;99645.91;;;22.90;23.37
33697;BME280;20031;43.416;23.232;2024-03-23T11:02:01;99647.00;;;23.10;23.80
33697;BME280;20031;43.416;23.232;2024-03-23T11:04:35;99639.50;;;23.29;23.78
33697;BME280;20031;43.416;23.232;2024-03-23T11:09:51;99621.25;;;23.37;23.80
33697;BME280;20031;43.416;23.232;2024-03-23T11:15:11;99611.78;;;23.51;23.85
33697;BME280;20031;43.416;23.232;2024-03-23T11:17:37;99609.69;;;23.53;23.37
33697;BME280;20031;43.416;23.232;2024-03-23T11:20:06;99604.47;;;23.63;23.44
33697;BME280;20031;43.416;23.232;2024-03-23T11:22:45;99601.72;;;23.53;23.56
33697;BME280;20031;43.416;23.232;2024-03-23T11:25:19;99597.31;;;23.37;23.42
33697;BME280;20031;43.416;23.232;2024-03-23T11:27:47;99590.78;;;23.50;23.76
33697;BME280;20031;43.416;23.232;2024-03-23T11:32:44;99580.28;;;23.64;23.94
33697;BME280;20031;43.416;23.232;2024-03-23T11:35:09;99571.03;;;23.67;23.45
33697;BME280;20031;43.416;23.232;2024-03-23T11:37:38;99568.75;;;23.54;23.18
33697;BME280;20031;43.416;23.232;2024-03-23T11:40:17;99557.66;;;23.62;23.32
33697;BME280;20031;43.416;23.232;2024-03-23T11:42:43;99550.94;;;23.55;23.51
33697;BME280;20031;43.416;23.232;2024-03-23T11:45:09;99550.19;;;23.59;23.21
33697;BME280;20031;43.416;23.232;2024-03-23T11:47:35;99544.97;;;23.69;23.48
33697;BME280;20031;43.416;23.232;2024-03-23T11:50:00;99542.84;;;23.71;23.64
33697;BME280;20031;43.416;23.232;2024-03-23T11:52:25;99540.59;;;23.58;23.57
33697;BME280;20031;43.416;23.232;2024-03-23T11:54:51;99533.00;;;23.40;22.99
33697;BME280;20031;43.416;23.232;2024-03-23T11:57:16;99529.44;;;23.61;23.46
33697;BME280;20031;43.416;23.232;2024-03-23T11:59:42;99525.72;;;23.57;23.48
33697;BME280;20031;43.416;23.232;2024-03-23T12:02:12;99523.03;;;23.57;23.14
33697;BME280;20031;43.416;23.232;2024-03-23T12:04:41;99511.31;;;23.58;23.05
33697;BME280;20031;43.416;23.232;2024-03-23T12:07:20;99506.84;;;23.59;23.49
33697;BME280;20031;43.416;23.232;2024-03-23T12:10:02;99500.78;;;23.68;23.13
33697;BME280;20031;43.416;23.232;2024-03-23T12:12:27;99489.53;;;23.61;22.99
33697;BME280;20031;43.416;23.232;2024-03-23T12:15:07;99492.69;;;23.53;23.48
33697;BME280;20031;43.416;23.232;2024-03-23T12:17:34;99486.16;;;23.65;23.56
33697;BME280;20031;43.416;23.232;2024-03-23T12:20:00;99485.84;;;23.62;23.78
33697;BME280;20031;43.416;23.232;2024-03-23T12:22:26;99470.91;;;23.56;23.72
33697;BME280;20031;43.416;23.232;2024-03-23T12:24:52;99470.91;;;23.56;24.12
33697;BME280;20031;43.416;23.232;2024-03-23T12:27:17;99466.63;;;23.55;23.81
33697;BME280;20031;43.416;23.232;2024-03-23T12:29:43;99460.78;;;23.53;23.31
33697;BME280;20031;43.416;23.232;2024-03-23T12:32:11;99460.78;;;23.53;23.52
33697;BME280;20031;43.416;23.232;2024-03-23T12:34:37;99460.47;;;23.50;23.00
33697;BME280;20031;43.416;23.232;2024-03-23T12:37:03;99450.78;;;23.34;23.39
33697;BME280;20031;43.416;23.232;2024-03-23T12:39:29;99440.50;;;23.11;23.86
33697;BME280;20031;43.416;23.232;2024-03-23T12:41:55;99434.06;;;23.02;23.75
33697;BME280;20031;43.416;23.232;2024-03-23T12:44:20;99433.13;;;22.92;24.15
33697;BME280;20031;43.416;23.232;2024-03-23T12:46:46;99426.41;;;22.79;24.27
33697;BME280;20031;43.416;23.232;2024-03-23T12:49:12;99427.09;;;22.70;24.18
33697;BME280;20031;43.416;23.232;2024-03-23T12:51:38;99426.56;;;22.68;24.76
33697;BME280;20031;43.416;23.232;2024-03-23T12:54:03;99420.66;;;22.66;24.38
33697;BME280;20031;43.416;23.232;2024-03-23T12:56:29;99412.66;;;22.61;23.89
33697;BME280;20031;43.416;23.232;2024-03-23T12:58:55;99413.06;;;22.48;23.93
33697;BME280;20031;43.416;23.232;2024-03-23T13:01:23;99400.72;;;22.37;23.85
33697;BME280;20031;43.416;23.232;2024-03-23T13:03:51;99400.13;;;22.30;24.13
33697;BME280;20031;43.416;23.232;2024-03-23T13:06:18;99402.72;;;22.25;24.88
33697;BME280;20031;43.416;23.232;2024-03-23T13:08:47;99395.81;;;22.24;24.67
33697;BME280;20031;43.416;23.232;2024-03-23T13:11:15;99389.06;;;22.17;25.04
33697;BME280;20031;43.416;23.232;2024-03-23T13:13:41;99383.44;;;22.13;25.00
33697;BME280;20031;43.416;23.232;2024-03-23T13:16:07;99381.38;;;22.15;25.33
33697;BME280;20031;43.416;23.232;2024-03-23T13:18:33;99382.41;;;22.14;24.91
33697;BME280;20031;43.416;23.232;2024-03-23T13:20:59;99381.00;;;22.07;25.11
33697;BME280;20031;43.416;23.232;2024-03-23T13:23:24;99374.22;;;21.95;24.76
33697;BME280;20031;43.416;23.232;2024-03-23T13:25:51;99373.34;;;21.89;25.16
33697;BME280;20031;43.416;23.232;2024-03-23T13:28:18;99364.59;;;21.89;24.65
33697;BME280;20031;43.416;23.232;2024-03-23T13:30:54;99373.59;;;21.88;25.21
33697;BME280;20031;43.416;23.232;2024-03-23T13:33:20;99363.59;;;21.95;24.91
33697;BME280;20031;43.416;23.232;2024-03-23T13:35:50;99370.88;;;22.04;24.68
33697;BME280;20031;43.416;23.232;2024-03-23T13:38:16;99359.41;;;21.99;24.42
33697;BME280;20031;43.416;23.232;2024-03-23T13:40:52;99360.41;;;21.93;25.02
33697;BME280;20031;43.416;23.232;2024-03-23T13:43:18;99354.28;;;21.92;24.76
33697;BME280;20031;43.416;23.232;2024-03-23T13:45:44;99348.69;;;21.89;24.92
33697;BME280;20031;43.416;23.232;2024-03-23T13:48:09;99342.09;;;21.91;24.90
33697;BME280;20031;43.416;23.232;2024-03-23T13:50:35;99341.78;;;21.88;24.79